Tieling, China
Current Conditions -  °F | °C
As of 11:30 AM on Saturday 29 Nov 2014 (Local Time) from ZYTX Reporting Station
Clear Clear  
Wind Chill: 42°   Ceiling: Unl
Heat Index: 45°   Visibility: 4mi
Dew Point: 19°   Wind: 4mph
Humidity: 37%   Direction: 170°S
Pressure: 30.12"   Gusts: NA
Location:  42.3°N, 123.82°E
Report Text: ZYTX 290330Z 17002MPS 120V210 6000 NSC 07/M07 Q1020 NOSIG
Loading
Personal Weather Stations






























Interactive Weather Map New forecast layout! Learn more

10-Day Weather Forecast

Advertisements
Track Severe Weather on mobile